Ikan Parang — 9V9099 — position and weather

sailwx.info

Track history (hours):
 
Tides and Currents Weather Stations Pressure Air Temp Water Temp Dewpoint Dewpoint Depression Visibility Wind Speed Wind Dir Waves Ship Positions

Ikan Parang

Last reported at 2017-Apr-25 07:25 UTC. Time now 2017-Apr-28 00:44 UTC.
Position N 01°15' E 104°02'.

Length 183 m; draft 7 m.

Type: Cargo ship. MMSI: 566238000.

Date/timePositionNaut miles runAvg speedWind from/ knotsBaromVisibWave heightAir tempDewpointWater temp
2017-Apr-25 07:25N 01°15' E 104°02'512.5
2017-Apr-25 07:00N 01°14' E 103°57'612.7
2017-Apr-25 06:30N 01°11' E 103°51'713.0
2017-Apr-25 06:00N 01°08' E 103°46'612.4
2017-Apr-25 05:30N 01°03' E 103°41'611.7
2017-Apr-25 05:00N 01°04' E 103°36'713.2
2017-Apr-25 04:30N 01°08' E 103°30'5214.2
2017-Apr-25 00:52N 01°37' E 102°48'715.1
2017-Apr-25 00:26N 01°40' E 102°42'1115.1
2017-Apr-24 23:43N 01°45' E 102°32'315.1
2017-Apr-24 23:30N 01°46' E 102°29'815.1
2017-Apr-24 23:00N 01°49' E 102°22'  
Track history (hours):
 
Tides and Currents Weather Stations Pressure Air Temp Water Temp Dewpoint Dewpoint Depression Visibility Wind Speed Wind Dir Waves Ship Positions

Ikan Parang

Last reported at 2017-Apr-25 07:25 UTC. Time now 2017-Apr-28 00:44 UTC.
Position N 01°15' E 104°02'.

Length 183 m; draft 7 m.

Type: Cargo ship. MMSI: 566238000.

Date/timePositionNaut miles runAvg speedWind from/ knotsBaromVisibWave heightAir tempDewpointWater temp
2017-Apr-25 07:25N 01°15' E 104°02'512.5
2017-Apr-25 07:00N 01°14' E 103°57'612.7
2017-Apr-25 06:30N 01°11' E 103°51'713.0
2017-Apr-25 06:00N 01°08' E 103°46'612.4
2017-Apr-25 05:30N 01°03' E 103°41'611.7
2017-Apr-25 05:00N 01°04' E 103°36'713.2
2017-Apr-25 04:30N 01°08' E 103°30'5214.2
2017-Apr-25 00:52N 01°37' E 102°48'715.1
2017-Apr-25 00:26N 01°40' E 102°42'1115.1
2017-Apr-24 23:43N 01°45' E 102°32'315.1
2017-Apr-24 23:30N 01°46' E 102°29'815.1
2017-Apr-24 23:00N 01°49' E 102°22'  

Dump ship's entire track history